Polk, PA (16342)

9:12 PM EDT on October 31, 2014 (GMT -0400)
Venango Regional | Change Station
CLOSE
Current Station
Airport
Location: Franklin,
Elevation: 1539 ft
Nearby Weather Stations

Elev 1539 ft 41.38 °N, 79.86 °W | Updated 37 minutes ago

Rain
Rain
39 °F
Feels Like 39 °F
N
0
Wind Variable Wind from North

Today
High -- | Low -- °F
--% Chance of Precip.
Yesterday
High -- | Low -- °F
Precip. -- in
7:49 AM 6:16 PM
First Quarter, 61% visible
Pressure 29.91 in
Visibility 5.0 miles
Clouds Few 600 ft
Scattered Clouds 1000 ft
Overcast 1600 ft
Dew Point 36 °F
Humidity 87%
Rainfall 0.11 in
Snow Depth Not available.
UV 0 out of 12
Pollen .10 out of 12
Air Quality Not available.
Flu Activity Not available.
METAR KFKL 010035Z 00000KT 5SM FEW006 SCT010 OVC016 04/02 A2991 RMK AO1

More Conditions Fewer Conditions

Pressure 29.91 in
Visibility 5.0 miles
Clouds Few 600 ft
Scattered Clouds 1000 ft
Overcast 1600 ft
Dew Point 36 °F
Humidity 87%
Rainfall 0.11 in
Snow Depth Not available.
UV 0 out of 12
Pollen .10 out of 12
Air Quality Not available.
Flu Activity Not available.
METAR KFKL 010035Z 00000KT 5SM FEW006 SCT010 OVC016 04/02 A2991 RMK AO1

More Conditions Fewer Conditions

10-Day Weather Forecast

Almanac

Astronomy

Oct. 31, 2014 Rise Set
Actual Time
Civil Twilight
Nautical Twilight
Astronomical Twilight
Moon
Length of Visible Light
Length of Day
Tomorrow will be .
, % of the Moon is Illuminated

Today's Extremes

State Highs State Lows

Community

WunderPhotos

Upload Photos

1,766,798 photos uploaded!

WunderBlogs® & News

Nearby

Air Quality

  Air Quality AQ Index Pollutant
Not available.

Snow Depth

Station Depth Elevation

Earthquake Activity

City Distance Mag. Time & Date
Minimum magnitude displayed is 2.5.

Coastal Water Temperatures

Place Temperature

Nearby Weather Stations